Time;durP1;ratioP1;P1;durP2;ratioP2;P2;SDS_P1;SDS_P2;PMS_P1;PMS_P2;Temp;Humidity;BMP_temperature;BMP_pressure;BME280_temperature;BME280_humidity;BME280_pressure;Samples;Min_cycle;Max_cycle;Signal;HPM_P1;HPM_P2
2022/03/23 00:01:57;;;;;;;8.00;5.20;;;;;;;;;;5023513;28;20603;-84
2022/03/23 00:05:01;;;;;;;8.03;4.97;;;;;;;;;;5022867;28;20594;-83
2022/03/23 00:08:05;;;;;;;6.63;4.90;;;;;;;;;;5035247;28;21012;-84
2022/03/23 00:11:09;;;;;;;7.73;5.27;;;;;;;;;;5035538;28;20880;-83
2022/03/23 00:14:13;;;;;;;11.07;5.03;;;;;;;;;;5025730;28;20547;-83
2022/03/23 00:17:18;;;;;;;9.13;6.10;;;;;;;;;;5036133;28;20959;-82
2022/03/23 00:20:23;;;;;;;10.67;5.90;;;;;;;;;;5036183;28;20544;-83
2022/03/23 00:23:27;;;;;;;10.10;5.90;;;;;;;;;;5012365;28;21098;-84
2022/03/23 00:26:31;;;;;;;7.67;5.57;;;;;;;;;;5034027;28;21229;-84
2022/03/23 00:29:36;;;;;;;10.67;6.00;;;;;;;;;;5023243;28;20556;-84
2022/03/23 00:32:40;;;;;;;12.33;5.47;;;;;;;;;;5035303;28;20595;-84
2022/03/23 00:35:45;;;;;;;8.57;5.43;;;;;;;;;;5022382;28;20536;-83
2022/03/23 00:38:50;;;;;;;8.47;5.43;;;;;;;;;;5049179;28;20548;-83
2022/03/23 00:41:54;;;;;;;7.97;5.40;;;;;;;;;;5034056;28;20544;-83
2022/03/23 00:44:58;;;;;;;7.93;4.97;;;;;;;;;;5024005;28;20544;-83
2022/03/23 00:48:03;;;;;;;8.00;5.83;;;;;;;;;;5034190;28;20623;-84
2022/03/23 00:51:07;;;;;;;8.37;5.60;;;;;;;;;;5010213;28;20603;-84
2022/03/23 00:54:12;;;;;;;7.07;4.77;;;;;;;;;;5021770;28;20603;-82
2022/03/23 00:57:17;;;;;;;8.10;4.97;;;;;;;;;;5034407;28;21185;-84
2022/03/23 01:00:22;;;;;;;9.00;5.77;;;;;;;;;;5047599;28;20591;-84
2022/03/23 01:03:26;;;;;;;6.60;4.53;;;;;;;;;;5035369;28;20540;-84
2022/03/23 01:06:32;;;;;;;8.30;5.37;;;;;;;;;;5023268;28;21241;-84
2022/03/23 01:09:36;;;;;;;6.90;5.27;;;;;;;;;;5033055;28;20540;-84
2022/03/23 01:12:43;;;;;;;8.60;5.53;;;;;;;;;;5045699;28;20544;-84
2022/03/23 01:15:47;;;;;;;9.77;6.27;;;;;;;;;;5023438;28;20556;-83
2022/03/23 01:18:52;;;;;;;9.20;5.30;;;;;;;;;;5032763;28;20607;-84
2022/03/23 01:21:57;;;;;;;8.87;5.67;;;;;;;;;;5044004;28;20556;-84
2022/03/23 01:25:03;;;;;;;9.70;6.00;;;;;;;;;;5032745;28;20540;-84
2022/03/23 01:28:09;;;;;;;10.37;6.03;;;;;;;;;;5032607;28;21169;-84
2022/03/23 01:31:15;;;;;;;9.10;6.00;;;;;;;;;;5021007;28;20548;-84
2022/03/23 01:34:19;;;;;;;13.03;6.40;;;;;;;;;;5032695;28;20544;-84
2022/03/23 01:37:23;;;;;;;11.60;6.00;;;;;;;;;;5024853;28;20960;-84
2022/03/23 01:40:29;;;;;;;9.87;5.83;;;;;;;;;;5036249;28;21062;-84
2022/03/23 01:43:34;;;;;;;6.23;5.27;;;;;;;;;;5036289;28;20555;-84
2022/03/23 01:47:00;;;;;;;8.47;5.60;;;;;;;;;;5024624;28;20663;-84
2022/03/23 01:50:06;;;;;;;8.53;5.37;;;;;;;;;;5036135;28;20540;-84
2022/03/23 01:53:10;;;;;;;8.50;5.50;;;;;;;;;;5047453;28;20544;-84
2022/03/23 01:56:14;;;;;;;9.23;5.47;;;;;;;;;;5035825;28;20631;-84
2022/03/23 01:59:19;;;;;;;7.53;5.60;;;;;;;;;;5035938;28;20548;-84
2022/03/23 02:02:23;;;;;;;10.53;5.20;;;;;;;;;;5047126;28;20603;-84
2022/03/23 02:05:39;;;;;;;6.83;4.80;;;;;;;;;;5024429;28;20600;-84
2022/03/23 02:08:44;;;;;;;8.50;5.47;;;;;;;;;;5013414;28;20536;-84
2022/03/23 02:11:49;;;;;;;8.37;4.83;;;;;;;;;;5035698;28;20540;-84
2022/03/23 02:14:53;;;;;;;8.07;5.80;;;;;;;;;;5024067;28;20552;-84
2022/03/23 02:17:57;;;;;;;10.27;5.50;;;;;;;;;;5013013;28;20615;-84
2022/03/23 02:21:02;;;;;;;8.37;5.07;;;;;;;;;;5024632;28;20935;-84
2022/03/23 02:24:12;;;;;;;7.27;5.30;;;;;;;;;;5035324;28;20544;-84
2022/03/23 02:27:18;;;;;;;7.43;5.90;;;;;;;;;;5046851;28;20667;-84
2022/03/23 02:30:22;;;;;;;10.07;5.23;;;;;;;;;;5035437;28;20559;-84
2022/03/23 02:33:26;;;;;;;9.87;5.73;;;;;;;;;;5035109;28;20603;-84
2022/03/23 02:36:31;;;;;;;8.00;5.40;;;;;;;;;;5012219;28;20622;-84
2022/03/23 02:39:35;;;;;;;7.57;5.20;;;;;;;;;;5046311;28;21161;-84
2022/03/23 02:42:40;;;;;;;9.57;6.07;;;;;;;;;;5035328;28;20598;-84
2022/03/23 02:45:44;;;;;;;11.13;5.53;;;;;;;;;;5022786;28;20611;-84
2022/03/23 02:48:49;;;;;;;9.17;5.63;;;;;;;;;;5035373;28;20544;-84
2022/03/23 02:51:53;;;;;;;8.47;5.17;;;;;;;;;;5035059;28;20556;-84
2022/03/23 03:02:03;;;;;;;11.20;6.27;;;;;;;;;;5035310;28;20543;-84
2022/03/23 03:05:10;;;;;;;8.37;5.23;;;;;;;;;;5023526;28;20537;-84
2022/03/23 03:11:38;;;;;;;9.17;6.27;;;;;;;;;;5034593;28;20548;-84
2022/03/23 03:14:42;;;;;;;10.60;6.47;;;;;;;;;;5023077;28;20595;-84
2022/03/23 03:17:46;;;;;;;9.23;6.23;;;;;;;;;;5023019;28;21199;-84
2022/03/23 03:20:50;;;;;;;9.30;6.23;;;;;;;;;;5034389;28;20556;-84
2022/03/23 03:23:54;;;;;;;8.13;6.13;;;;;;;;;;5022876;28;20540;-84
2022/03/23 03:26:58;;;;;;;9.77;5.80;;;;;;;;;;5034611;28;20991;-85
2022/03/23 03:30:07;;;;;;;9.50;6.30;;;;;;;;;;5022572;28;20551;-84
2022/03/23 03:33:11;;;;;;;8.87;5.60;;;;;;;;;;5023072;28;20540;-84
2022/03/23 03:36:16;;;;;;;9.80;5.97;;;;;;;;;;5022667;28;20615;-84
2022/03/23 03:39:20;;;;;;;9.97;6.07;;;;;;;;;;5022718;28;21082;-84
2022/03/23 03:42:24;;;;;;;11.73;6.50;;;;;;;;;;5022640;28;20595;-84
2022/03/23 03:45:28;;;;;;;9.47;6.30;;;;;;;;;;5033844;28;20618;-84
2022/03/23 03:48:33;;;;;;;8.90;6.00;;;;;;;;;;5041854;28;20584;-84
2022/03/23 03:51:37;;;;;;;7.90;5.83;;;;;;;;;;5034187;28;20595;-85
2022/03/23 03:54:42;;;;;;;10.30;6.40;;;;;;;;;;5034093;28;20621;-85
2022/03/23 03:57:47;;;;;;;11.33;6.33;;;;;;;;;;5045043;28;20642;-85
2022/03/23 04:00:51;;;;;;;9.10;5.90;;;;;;;;;;5033490;28;20602;-84
2022/03/23 04:03:55;;;;;;;11.13;6.23;;;;;;;;;;5033527;28;20599;-84
2022/03/23 04:06:59;;;;;;;9.93;6.53;;;;;;;;;;5033135;28;20677;-84
2022/03/23 04:10:04;;;;;;;9.93;5.93;;;;;;;;;;5033256;28;20888;-84
2022/03/23 04:13:08;;;;;;;9.93;6.20;;;;;;;;;;5022206;28;20877;-84
2022/03/23 04:16:12;;;;;;;11.07;6.40;;;;;;;;;;5033302;28;20619;-84
2022/03/23 04:19:17;;;;;;;8.63;5.97;;;;;;;;;;5010539;28;20989;-84
2022/03/23 04:22:21;;;;;;;22.07;7.00;;;;;;;;;;5032985;28;20611;-84
2022/03/23 04:25:26;;;;;;;11.03;6.13;;;;;;;;;;5040107;28;20601;-84
2022/03/23 04:28:30;;;;;;;12.70;6.70;;;;;;;;;;5053767;28;20543;-84
2022/03/23 04:31:35;;;;;;;16.03;6.13;;;;;;;;;;5021860;28;20548;-84
2022/03/23 04:34:39;;;;;;;10.27;6.30;;;;;;;;;;5033046;28;20546;-84
2022/03/23 04:37:44;;;;;;;10.20;6.40;;;;;;;;;;5032876;28;20618;-84
2022/03/23 04:40:48;;;;;;;10.47;6.77;;;;;;;;;;5044722;28;20543;-84
2022/03/23 04:43:53;;;;;;;11.07;6.17;;;;;;;;;;5033451;28;21186;-84
2022/03/23 04:46:56;;;;;;;10.13;6.50;;;;;;;;;;5022056;28;20666;-84
2022/03/23 04:50:02;;;;;;;15.77;7.27;;;;;;;;;;5033282;28;20547;-84
2022/03/23 04:53:06;;;;;;;10.87;7.10;;;;;;;;;;5045110;28;20547;-84
2022/03/23 04:56:12;;;;;;;8.83;6.20;;;;;;;;;;5032974;28;21213;-84
2022/03/23 04:59:16;;;;;;;9.00;5.90;;;;;;;;;;5021908;28;20539;-84
2022/03/23 05:02:20;;;;;;;9.30;6.53;;;;;;;;;;5021750;28;20544;-84
2022/03/23 05:05:24;;;;;;;11.00;6.93;;;;;;;;;;5021669;28;20535;-84
2022/03/23 05:08:28;;;;;;;8.87;6.27;;;;;;;;;;5032944;28;20541;-84
2022/03/23 05:11:32;;;;;;;10.13;6.57;;;;;;;;;;5025726;28;20540;-84
2022/03/23 05:14:37;;;;;;;11.70;6.60;;;;;;;;;;5038202;28;20555;-84
2022/03/23 05:17:42;;;;;;;16.93;6.43;;;;;;;;;;5037056;28;20640;-84
2022/03/23 05:20:46;;;;;;;10.17;6.67;;;;;;;;;;5048404;28;20572;-84
2022/03/23 05:23:50;;;;;;;12.43;6.47;;;;;;;;;;5037261;28;20540;-84
2022/03/23 05:26:54;;;;;;;10.23;6.57;;;;;;;;;;5036700;28;20662;-84
2022/03/23 05:29:58;;;;;;;11.60;6.50;;;;;;;;;;5036796;28;20551;-84
2022/03/23 05:33:04;;;;;;;12.63;7.07;;;;;;;;;;5025246;28;20591;-84
2022/03/23 05:36:08;;;;;;;16.80;7.03;;;;;;;;;;5036990;28;20618;-84
2022/03/23 05:39:13;;;;;;;10.83;6.50;;;;;;;;;;5014282;28;20539;-84
2022/03/23 05:42:17;;;;;;;11.07;6.50;;;;;;;;;;5048439;28;20548;-84
2022/03/23 05:45:22;;;;;;;9.70;5.97;;;;;;;;;;5036544;28;20551;-84
2022/03/23 05:48:25;;;;;;;11.77;7.00;;;;;;;;;;5024464;28;20643;-85
2022/03/23 05:51:30;;;;;;;9.33;6.40;;;;;;;;;;5035841;28;20607;-85
2022/03/23 05:54:34;;;;;;;10.60;6.57;;;;;;;;;;5036335;28;20599;-85
2022/03/23 05:57:39;;;;;;;11.50;7.60;;;;;;;;;;5036335;28;20615;-84
2022/03/23 06:00:43;;;;;;;12.37;7.70;;;;;;;;;;5036193;28;20555;-85
2022/03/23 06:03:49;;;;;;;17.13;7.77;;;;;;;;;;5047480;28;20548;-85
2022/03/23 06:06:53;;;;;;;12.40;7.27;;;;;;;;;;5024375;28;21208;-84
2022/03/23 06:09:59;;;;;;;16.67;7.87;;;;;;;;;;5024566;28;20598;-85
2022/03/23 06:13:04;;;;;;;14.20;7.83;;;;;;;;;;5035761;28;20884;-85
2022/03/23 06:16:08;;;;;;;17.63;7.97;;;;;;;;;;5012908;28;20626;-84
2022/03/23 06:19:13;;;;;;;14.43;8.43;;;;;;;;;;5035640;28;20876;-85
2022/03/23 06:22:18;;;;;;;16.87;8.50;;;;;;;;;;5023838;28;20939;-85
2022/03/23 06:25:24;;;;;;;11.67;7.90;;;;;;;;;;5024176;28;20628;-85
2022/03/23 06:28:28;;;;;;;18.73;8.90;;;;;;;;;;5024233;28;21181;-85
2022/03/23 06:31:33;;;;;;;18.27;9.63;;;;;;;;;;5024922;28;20548;-85
2022/03/23 06:34:37;;;;;;;34.50;11.40;;;;;;;;;;5035118;28;21066;-85
2022/03/23 06:37:41;;;;;;;16.07;9.60;;;;;;;;;;5023430;28;20627;-85
2022/03/23 06:40:45;;;;;;;18.53;10.43;;;;;;;;;;5035257;28;20543;-85
2022/03/23 06:43:49;;;;;;;17.33;10.13;;;;;;;;;;5046592;28;21119;-84
2022/03/23 06:46:53;;;;;;;22.70;12.03;;;;;;;;;;5023522;28;20662;-85
2022/03/23 06:49:57;;;;;;;23.60;13.43;;;;;;;;;;5034891;28;20907;-85
2022/03/23 06:53:02;;;;;;;32.03;19.90;;;;;;;;;;5012339;28;20547;-85
2022/03/23 06:56:05;;;;;;;31.77;16.70;;;;;;;;;;5035033;28;20959;-85
2022/03/23 06:59:10;;;;;;;15.80;11.03;;;;;;;;;;5046431;28;20566;-85
2022/03/23 07:02:14;;;;;;;16.13;10.83;;;;;;;;;;5012446;28;20543;-85
2022/03/23 07:05:19;;;;;;;17.57;9.10;;;;;;;;;;5023489;28;20555;-85
2022/03/23 07:11:46;;;;;;;10.87;7.87;;;;;;;;;;4964532;28;20548;-86
2022/03/23 07:14:50;;;;;;;12.77;8.60;;;;;;;;;;4931955;29;20546;-86
2022/03/23 07:17:54;;;;;;;11.43;8.40;;;;;;;;;;5001285;28;20546;-86
2022/03/23 07:20:58;;;;;;;14.47;8.40;;;;;;;;;;5043154;28;20176;-86
2022/03/23 07:24:02;;;;;;;16.97;8.67;;;;;;;;;;5042882;28;20630;-86
2022/03/23 07:27:06;;;;;;;12.23;8.97;;;;;;;;;;5031772;28;20685;-86
2022/03/23 07:30:10;;;;;;;14.97;8.80;;;;;;;;;;5031738;28;20192;-86
2022/03/23 07:33:14;;;;;;;11.73;8.83;;;;;;;;;;5031141;28;20634;-86
2022/03/23 07:36:19;;;;;;;15.43;9.03;;;;;;;;;;5031954;28;20631;-86
2022/03/23 07:39:25;;;;;;;12.90;9.07;;;;;;;;;;5044259;28;20186;-86
2022/03/23 07:42:29;;;;;;;12.83;8.90;;;;;;;;;;5034115;28;20184;-86
2022/03/23 07:45:33;;;;;;;14.10;9.27;;;;;;;;;;5044722;28;20180;-86
2022/03/23 07:48:37;;;;;;;15.67;9.00;;;;;;;;;;5033147;28;20224;-86
2022/03/23 07:51:42;;;;;;;16.27;8.03;;;;;;;;;;5031205;28;20199;-86
2022/03/23 07:54:46;;;;;;;12.07;8.97;;;;;;;;;;5053916;28;20185;-86
2022/03/23 07:57:50;;;;;;;10.70;8.57;;;;;;;;;;5031165;28;20221;-86
2022/03/23 08:00:55;;;;;;;16.17;8.70;;;;;;;;;;5031609;28;20681;-86
2022/03/23 08:04:00;;;;;;;13.73;9.20;;;;;;;;;;5031188;28;20187;-86
2022/03/23 08:07:04;;;;;;;18.63;13.70;;;;;;;;;;5030600;28;20729;-86
2022/03/23 08:10:08;;;;;;;16.00;9.70;;;;;;;;;;5042691;28;20654;-86
2022/03/23 08:13:12;;;;;;;35.50;30.07;;;;;;;;;;5031589;28;20185;-86
2022/03/23 08:16:17;;;;;;;14.97;10.40;;;;;;;;;;5042593;28;20199;-86
2022/03/23 08:19:22;;;;;;;14.77;9.13;;;;;;;;;;5031218;28;20183;-86
2022/03/23 08:22:26;;;;;;;17.53;9.70;;;;;;;;;;5042233;28;20547;-86
2022/03/23 08:25:30;;;;;;;13.80;8.67;;;;;;;;;;5042220;28;20193;-86
2022/03/23 08:28:34;;;;;;;10.30;8.07;;;;;;;;;;5041650;28;20726;-86
2022/03/23 08:31:39;;;;;;;12.63;8.77;;;;;;;;;;5041581;28;20188;-87
2022/03/23 08:34:43;;;;;;;12.93;8.90;;;;;;;;;;5042259;28;20188;-86
2022/03/23 08:37:48;;;;;;;14.10;9.47;;;;;;;;;;5041893;28;20215;-86
2022/03/23 08:40:52;;;;;;;14.70;8.87;;;;;;;;;;5042395;28;20185;-87
2022/03/23 08:43:56;;;;;;;14.30;9.27;;;;;;;;;;5041163;28;20196;-87
2022/03/23 08:47:00;;;;;;;14.43;9.17;;;;;;;;;;5042001;28;20215;-86
2022/03/23 08:50:10;;;;;;;14.77;9.37;;;;;;;;;;5042002;28;20183;-86
2022/03/23 08:53:14;;;;;;;13.43;10.20;;;;;;;;;;5042334;28;20184;-85
2022/03/23 08:56:19;;;;;;;13.70;9.53;;;;;;;;;;5030348;28;20187;-86
2022/03/23 08:59:23;;;;;;;11.67;9.27;;;;;;;;;;5041827;28;20180;-86
2022/03/23 09:02:27;;;;;;;12.43;9.67;;;;;;;;;;5030234;28;20203;-86
2022/03/23 09:05:31;;;;;;;84.17;74.77;;;;;;;;;;5042067;28;20179;-86
2022/03/23 09:08:36;;;;;;;38.73;29.43;;;;;;;;;;5029908;28;20724;-85
2022/03/23 09:11:43;;;;;;;17.57;10.90;;;;;;;;;;5052825;28;20187;-86
2022/03/23 09:14:47;;;;;;;14.13;9.67;;;;;;;;;;5041443;28;20255;-86
2022/03/23 09:17:58;;;;;;;18.10;10.37;;;;;;;;;;5041309;28;20210;-86
2022/03/23 09:21:02;;;;;;;13.97;9.60;;;;;;;;;;5029902;28;20187;-86
2022/03/23 09:24:06;;;;;;;13.90;9.70;;;;;;;;;;5029829;28;20179;-86
2022/03/23 09:27:10;;;;;;;11.40;9.17;;;;;;;;;;5030238;28;20223;-87
2022/03/23 09:30:15;;;;;;;17.07;9.70;;;;;;;;;;5040885;28;20538;-85
2022/03/23 09:33:19;;;;;;;19.67;13.40;;;;;;;;;;5041571;28;20184;-85
2022/03/23 09:39:47;;;;;;;15.43;10.30;;;;;;;;;;5029728;28;20180;-86
2022/03/23 09:43:22;;;;;;;12.67;9.07;;;;;;;;;;5041109;28;20538;-86
2022/03/23 09:46:26;;;;;;;13.50;9.87;;;;;;;;;;5029437;28;20191;-87
2022/03/23 09:49:31;;;;;;;14.97;10.20;;;;;;;;;;5029487;28;20686;-85
2022/03/23 09:52:36;;;;;;;15.17;10.37;;;;;;;;;;5029582;28;20231;-85
2022/03/23 09:55:45;;;;;;;15.97;10.30;;;;;;;;;;5054427;28;20187;-85
2022/03/23 09:58:49;;;;;;;20.77;9.97;;;;;;;;;;5044598;28;20570;-86
2022/03/23 10:02:35;;;;;;;16.03;10.60;;;;;;;;;;5045035;28;20202;-85
2022/03/23 10:06:11;;;;;;;24.20;14.57;;;;;;;;;;5026063;28;20211;-85
2022/03/23 10:10:10;;;;;;;12.63;10.17;;;;;;;;;;5033135;28;20215;-86
2022/03/23 10:14:01;;;;;;;16.13;10.80;;;;;;;;;;4939001;28;20299;-85
2022/03/23 10:17:30;;;;;;;14.63;10.37;;;;;;;;;;5033050;28;20226;-86
2022/03/23 10:20:35;;;;;;;22.40;10.63;;;;;;;;;;5033090;28;20190;-86
2022/03/23 10:23:50;;;;;;;14.00;10.47;;;;;;;;;;5021724;28;20184;-86
2022/03/23 10:26:54;;;;;;;13.77;11.33;;;;;;;;;;5033001;28;20219;-86
2022/03/23 10:29:58;;;;;;;14.27;10.87;;;;;;;;;;5044187;28;20211;-86
2022/03/23 10:33:03;;;;;;;15.27;12.17;;;;;;;;;;5021697;28;20187;-87
2022/03/23 10:36:07;;;;;;;15.43;11.30;;;;;;;;;;5032800;28;20184;-87
2022/03/23 10:39:12;;;;;;;15.13;11.60;;;;;;;;;;5033134;28;20195;-86
2022/03/23 10:42:19;;;;;;;14.60;10.50;;;;;;;;;;5032799;28;20183;-86
2022/03/23 10:45:23;;;;;;;18.33;11.80;;;;;;;;;;5032343;28;20195;-85
2022/03/23 10:48:27;;;;;;;14.27;11.03;;;;;;;;;;5032286;28;20231;-85
2022/03/23 10:51:34;;;;;;;13.50;11.03;;;;;;;;;;5044142;28;20191;-86
2022/03/23 10:54:37;;;;;;;17.60;11.03;;;;;;;;;;5032605;28;20187;-85
2022/03/23 10:57:51;;;;;;;13.97;12.10;;;;;;;;;;5043834;28;20223;-86
2022/03/23 11:00:58;;;;;;;17.87;11.70;;;;;;;;;;5032228;28;20188;-85
2022/03/23 11:04:07;;;;;;;17.63;11.50;;;;;;;;;;5032294;28;20192;-86
2022/03/23 11:07:28;;;;;;;15.50;10.97;;;;;;;;;;5030973;28;20232;-86
2022/03/23 11:17:29;;;;;;;17.10;12.00;;;;;;;;;;5031947;28;20224;-85
2022/03/23 11:20:55;;;;;;;15.30;11.63;;;;;;;;;;5031784;28;20531;-85
2022/03/23 11:23:59;;;;;;;16.43;11.97;;;;;;;;;;5031961;28;20195;-86
2022/03/23 11:27:06;;;;;;;14.00;11.83;;;;;;;;;;5031767;28;20223;-86
2022/03/23 11:30:12;;;;;;;15.30;11.63;;;;;;;;;;5031211;28;20701;-85
2022/03/23 11:33:21;;;;;;;15.57;11.13;;;;;;;;;;5043265;28;20263;-86
2022/03/23 11:36:28;;;;;;;15.40;12.23;;;;;;;;;;5031630;28;20196;-86
2022/03/23 11:39:33;;;;;;;14.90;11.60;;;;;;;;;;5031906;28;20551;-86
2022/03/23 11:42:38;;;;;;;14.07;11.97;;;;;;;;;;5042904;28;20191;-85
2022/03/23 11:45:46;;;;;;;15.83;12.53;;;;;;;;;;5031471;28;20211;-85
2022/03/23 11:49:27;;;;;;;14.63;11.50;;;;;;;;;;5042583;28;20227;-85
2022/03/23 11:52:41;;;;;;;15.47;12.53;;;;;;;;;;5031219;28;20559;-85
2022/03/23 11:55:50;;;;;;;15.23;11.40;;;;;;;;;;5019976;28;20199;-86
2022/03/23 11:58:54;;;;;;;15.33;12.10;;;;;;;;;;5042631;28;20211;-85
2022/03/23 12:01:58;;;;;;;17.57;11.97;;;;;;;;;;5042851;28;20183;-85
2022/03/23 12:05:22;;;;;;;15.40;12.47;;;;;;;;;;5031186;28;20187;-86
2022/03/23 12:08:54;;;;;;;14.37;12.27;;;;;;;;;;5041842;28;20654;-85
2022/03/23 12:12:00;;;;;;;14.27;12.00;;;;;;;;;;5042258;28;20192;-86
2022/03/23 12:15:23;;;;;;;14.23;12.73;;;;;;;;;;5030976;28;20275;-85
2022/03/23 12:19:01;;;;;;;18.70;12.30;;;;;;;;;;5031152;28;20223;-85
2022/03/23 12:22:05;;;;;;;16.03;12.50;;;;;;;;;;5020370;28;20187;-85
2022/03/23 12:25:23;;;;;;;14.77;12.53;;;;;;;;;;5031057;28;20550;-85
2022/03/23 12:28:32;;;;;;;15.83;12.67;;;;;;;;;;5053594;28;20223;-85
2022/03/23 12:31:38;;;;;;;14.03;11.87;;;;;;;;;;5030689;28;20547;-85
2022/03/23 12:34:43;;;;;;;15.77;11.47;;;;;;;;;;5030978;28;20179;-85
2022/03/23 12:37:47;;;;;;;12.83;11.47;;;;;;;;;;5030275;28;20219;-86
2022/03/23 12:40:56;;;;;;;12.97;11.23;;;;;;;;;;5042789;28;20185;-86
2022/03/23 12:44:10;;;;;;;15.13;11.50;;;;;;;;;;5032764;28;20185;-86
2022/03/23 12:47:25;;;;;;;15.73;11.30;;;;;;;;;;5032067;28;20241;-86
2022/03/23 13:00:49;;;;;;;18.97;11.47;;;;;;;;;;5042241;28;20239;-87
2022/03/23 13:03:55;;;;;;;13.10;11.70;;;;;;;;;;5053698;28;20190;-86
2022/03/23 13:06:58;;;;;;;22.13;11.60;;;;;;;;;;5030494;28;20230;-86
2022/03/23 13:10:09;;;;;;;13.80;12.07;;;;;;;;;;5043442;28;20222;-86
2022/03/23 13:13:18;;;;;;;12.60;10.90;;;;;;;;;;5030159;28;20198;-87
2022/03/23 13:16:27;;;;;;;14.83;10.73;;;;;;;;;;5030288;28;20187;-86
2022/03/23 13:19:31;;;;;;;14.50;11.13;;;;;;;;;;5053933;28;20560;-86
2022/03/23 13:22:38;;;;;;;15.53;12.97;;;;;;;;;;5030091;28;20189;-86
2022/03/23 13:25:42;;;;;;;11.50;9.97;;;;;;;;;;5030331;28;20182;-86
2022/03/23 13:28:56;;;;;;;13.17;10.40;;;;;;;;;;5041094;28;20218;-86
2022/03/23 13:32:04;;;;;;;13.47;10.47;;;;;;;;;;5033107;28;20188;-86
2022/03/23 13:35:17;;;;;;;12.60;10.70;;;;;;;;;;5056702;28;20189;-86
2022/03/23 13:38:21;;;;;;;11.60;10.40;;;;;;;;;;5022643;28;20224;-86
2022/03/23 13:44:57;;;;;;;15.70;10.70;;;;;;;;;;5044745;28;20193;-86
2022/03/23 13:48:07;;;;;;;12.33;10.67;;;;;;;;;;5033341;28;20225;-87
2022/03/23 13:51:11;;;;;;;12.40;10.90;;;;;;;;;;5033441;28;20642;-87
2022/03/23 13:54:19;;;;;;;11.53;10.10;;;;;;;;;;5033300;28;20188;-87
2022/03/23 13:57:26;;;;;;;14.60;10.13;;;;;;;;;;5033413;28;20711;-86
2022/03/23 14:00:32;;;;;;;12.53;10.10;;;;;;;;;;5033135;28;20188;-86
2022/03/23 14:03:38;;;;;;;13.13;9.57;;;;;;;;;;5045318;28;20625;-86
2022/03/23 14:06:51;;;;;;;11.07;9.07;;;;;;;;;;5055487;28;20193;-86
2022/03/23 14:09:57;;;;;;;13.27;8.47;;;;;;;;;;5044439;28;20211;-86
2022/03/23 14:13:06;;;;;;;10.20;9.10;;;;;;;;;;5044600;28;20188;-86
2022/03/23 14:16:10;;;;;;;13.30;9.93;;;;;;;;;;5032984;28;20197;-86
2022/03/23 14:19:15;;;;;;;10.53;9.37;;;;;;;;;;5044426;28;20176;-86
2022/03/23 14:22:24;;;;;;;11.50;9.17;;;;;;;;;;5044222;28;20210;-85
2022/03/23 14:25:29;;;;;;;13.50;9.90;;;;;;;;;;5032999;28;20176;-86
2022/03/23 14:28:32;;;;;;;11.63;9.97;;;;;;;;;;5044078;28;20222;-85
2022/03/23 14:31:40;;;;;;;18.77;10.80;;;;;;;;;;5044044;28;20691;-85
2022/03/23 14:34:47;;;;;;;35.23;11.90;;;;;;;;;;5032889;28;20183;-86
2022/03/23 14:37:53;;;;;;;15.63;9.83;;;;;;;;;;5044130;28;20226;-86
2022/03/23 14:41:00;;;;;;;11.93;10.30;;;;;;;;;;5033022;28;20181;-86
2022/03/23 14:44:04;;;;;;;13.00;8.80;;;;;;;;;;5055958;28;20191;-86
2022/03/23 14:47:08;;;;;;;14.10;9.70;;;;;;;;;;5055562;28;20211;-85
2022/03/23 14:50:13;;;;;;;9.80;8.80;;;;;;;;;;5044333;28;20563;-86
2022/03/23 14:53:20;;;;;;;10.83;9.10;;;;;;;;;;5033174;28;20180;-86
2022/03/23 14:56:24;;;;;;;9.23;8.13;;;;;;;;;;5044014;28;20531;-86
2022/03/23 14:59:29;;;;;;;17.30;9.30;;;;;;;;;;5032727;28;20180;-86
2022/03/23 15:02:33;;;;;;;11.20;8.83;;;;;;;;;;5044070;28;20187;-85
2022/03/23 15:15:45;;;;;;;16.90;8.00;;;;;;;;;;5042777;28;20184;-86
2022/03/23 15:18:50;;;;;;;9.37;7.93;;;;;;;;;;5031393;28;20208;-85
2022/03/23 15:21:54;;;;;;;11.03;8.80;;;;;;;;;;5042970;28;20195;-86
2022/03/23 15:24:58;;;;;;;24.67;8.93;;;;;;;;;;5042976;28;20207;-86
2022/03/23 15:28:03;;;;;;;27.30;8.73;;;;;;;;;;5031782;28;20738;-85
2022/03/23 15:31:08;;;;;;;9.77;7.53;;;;;;;;;;5042918;28;20212;-86
2022/03/23 15:34:12;;;;;;;11.30;8.07;;;;;;;;;;5031605;28;20192;-86
2022/03/23 15:37:20;;;;;;;9.00;7.50;;;;;;;;;;5031053;28;20583;-85
2022/03/23 15:40:24;;;;;;;8.53;7.63;;;;;;;;;;5032498;28;20172;-86
2022/03/23 15:43:28;;;;;;;11.50;9.03;;;;;;;;;;5032955;28;20204;-86
2022/03/23 15:46:35;;;;;;;11.23;8.43;;;;;;;;;;5044522;28;20193;-86
2022/03/23 15:49:43;;;;;;;13.23;7.90;;;;;;;;;;5033307;28;20225;-86
2022/03/23 15:52:48;;;;;;;8.87;7.97;;;;;;;;;;5044713;28;20211;-85
2022/03/23 15:55:53;;;;;;;10.10;7.47;;;;;;;;;;5044195;28;20180;-85
2022/03/23 15:58:58;;;;;;;19.13;8.10;;;;;;;;;;5055508;28;20188;-86
2022/03/23 16:02:02;;;;;;;11.10;7.80;;;;;;;;;;5042472;28;20187;-86
2022/03/23 16:05:06;;;;;;;16.93;8.27;;;;;;;;;;5030719;28;20204;-86
2022/03/23 16:08:10;;;;;;;10.50;8.33;;;;;;;;;;5042026;28;20232;-86
2022/03/23 16:11:16;;;;;;;10.63;8.33;;;;;;;;;;5031484;28;20216;-85
2022/03/23 16:14:21;;;;;;;9.67;8.07;;;;;;;;;;5042246;28;20542;-86
2022/03/23 16:17:25;;;;;;;12.90;7.90;;;;;;;;;;5031222;28;20220;-87
2022/03/23 16:20:31;;;;;;;11.70;8.07;;;;;;;;;;5031456;28;20681;-86
2022/03/23 16:23:35;;;;;;;9.77;7.87;;;;;;;;;;5042564;28;20207;-86
2022/03/23 16:26:39;;;;;;;12.00;7.77;;;;;;;;;;5031015;28;20196;-87
2022/03/23 16:29:44;;;;;;;12.70;8.50;;;;;;;;;;5053132;28;20196;-87
2022/03/23 16:32:53;;;;;;;9.97;8.20;;;;;;;;;;5041987;28;20211;-87
2022/03/23 16:35:59;;;;;;;14.00;8.80;;;;;;;;;;5053377;28;20180;-87
2022/03/23 16:39:05;;;;;;;11.43;8.57;;;;;;;;;;5041831;28;20518;-86
2022/03/23 16:42:12;;;;;;;24.17;8.57;;;;;;;;;;5030871;28;20183;-89
2022/03/23 16:45:18;;;;;;;15.23;8.60;;;;;;;;;;5031327;28;20550;-85
2022/03/23 16:48:23;;;;;;;12.57;9.40;;;;;;;;;;5055681;28;20212;-85
2022/03/23 16:51:27;;;;;;;12.17;9.03;;;;;;;;;;5032341;28;20212;-86
2022/03/23 16:54:32;;;;;;;15.03;9.47;;;;;;;;;;5043281;28;20202;-85
2022/03/23 16:57:36;;;;;;;14.13;9.07;;;;;;;;;;5032661;28;20215;-86
2022/03/23 17:00:41;;;;;;;12.83;8.77;;;;;;;;;;5030998;28;20547;-86
2022/03/23 17:13:56;;;;;;;17.57;11.23;;;;;;;;;;5042604;28;20187;-86
2022/03/23 17:17:01;;;;;;;21.83;11.17;;;;;;;;;;5041720;28;20227;-86
2022/03/23 17:20:07;;;;;;;48.30;12.70;;;;;;;;;;5041883;28;20195;-87
2022/03/23 17:23:11;;;;;;;22.67;10.27;;;;;;;;;;5030553;28;20184;-85
2022/03/23 17:26:18;;;;;;;15.93;8.80;;;;;;;;;;5052902;28;20187;-87
2022/03/23 17:29:22;;;;;;;10.67;8.13;;;;;;;;;;5029736;28;20196;-87
2022/03/23 17:32:28;;;;;;;11.23;8.40;;;;;;;;;;5030009;28;20183;-86
2022/03/23 17:35:33;;;;;;;15.43;9.27;;;;;;;;;;5040833;28;20683;-86
2022/03/23 17:38:38;;;;;;;13.23;9.20;;;;;;;;;;5041240;28;20702;-86
2022/03/23 17:41:42;;;;;;;11.37;8.57;;;;;;;;;;5052235;28;20181;-87
2022/03/23 17:44:47;;;;;;;14.67;8.87;;;;;;;;;;5052668;28;20183;-86
2022/03/23 17:47:51;;;;;;;10.63;8.40;;;;;;;;;;5041164;28;20223;-87
2022/03/23 17:50:55;;;;;;;10.60;8.73;;;;;;;;;;5040802;28;20212;-87
2022/03/23 17:53:59;;;;;;;11.43;7.97;;;;;;;;;;5029491;28;20650;-86
2022/03/23 17:57:03;;;;;;;11.00;8.23;;;;;;;;;;5040967;28;20223;-86
2022/03/23 18:00:09;;;;;;;12.30;8.90;;;;;;;;;;5041039;28;20559;-87
2022/03/23 18:03:16;;;;;;;16.83;9.43;;;;;;;;;;5029936;28;20189;-87
2022/03/23 18:06:20;;;;;;;9.97;7.83;;;;;;;;;;5029784;28;20544;-86
2022/03/23 18:09:25;;;;;;;10.47;8.13;;;;;;;;;;5029511;28;20168;-86
2022/03/23 18:12:29;;;;;;;11.27;8.23;;;;;;;;;;5041171;28;20184;-86
2022/03/23 18:15:34;;;;;;;11.03;8.33;;;;;;;;;;5040520;28;20185;-85
2022/03/23 18:18:38;;;;;;;13.13;7.43;;;;;;;;;;5033947;28;20232;-85
2022/03/23 18:21:42;;;;;;;19.50;8.10;;;;;;;;;;5033460;28;20196;-85
2022/03/23 18:24:46;;;;;;;9.67;7.07;;;;;;;;;;5034516;28;20211;-85
2022/03/23 18:27:50;;;;;;;14.77;8.17;;;;;;;;;;5044456;28;20220;-85
2022/03/23 18:30:56;;;;;;;12.33;7.97;;;;;;;;;;5044169;28;20574;-85
2022/03/23 18:34:00;;;;;;;10.77;7.70;;;;;;;;;;5043849;28;20216;-85
2022/03/23 18:37:04;;;;;;;11.43;7.37;;;;;;;;;;5032474;28;20212;-87
2022/03/23 18:40:09;;;;;;;11.63;7.80;;;;;;;;;;5032173;28;20204;-86
2022/03/23 18:43:15;;;;;;;8.87;6.67;;;;;;;;;;5043914;28;20191;-87
2022/03/23 18:46:21;;;;;;;8.60;6.97;;;;;;;;;;5032246;28;20192;-86
2022/03/23 18:49:25;;;;;;;10.47;7.20;;;;;;;;;;5043927;28;20172;-84
2022/03/23 18:52:29;;;;;;;10.37;7.13;;;;;;;;;;5031832;28;20211;-86
2022/03/23 18:55:33;;;;;;;8.77;7.10;;;;;;;;;;5044300;28;20180;-85
2022/03/23 18:58:39;;;;;;;10.23;6.70;;;;;;;;;;5043712;28;20219;-85
2022/03/23 19:01:43;;;;;;;10.07;6.50;;;;;;;;;;5044048;28;20180;-85
2022/03/23 19:04:49;;;;;;;12.43;7.57;;;;;;;;;;5043932;28;20184;-91
2022/03/23 19:07:53;;;;;;;13.47;6.33;;;;;;;;;;5042871;28;20223;-87
2022/03/23 19:10:57;;;;;;;9.43;6.43;;;;;;;;;;5044115;28;20204;-88
2022/03/23 19:14:01;;;;;;;9.67;6.80;;;;;;;;;;5032169;28;20180;-85
2022/03/23 19:17:05;;;;;;;9.30;6.77;;;;;;;;;;5042956;28;20564;-86